createdAt,value
2023-05-22T00:01:46.640Z,14.13
2023-05-22T00:04:13.438Z,13.43
2023-05-22T00:06:43.164Z,12.45
2023-05-22T00:09:10.040Z,12.32
2023-05-22T00:11:36.761Z,12.45
2023-05-22T00:14:03.400Z,12.55
2023-05-22T00:16:30.029Z,13.23
2023-05-22T00:18:57.339Z,12.48
2023-05-22T00:21:24.915Z,13.27
2023-05-22T00:23:51.559Z,12.77
2023-05-22T00:26:18.154Z,12.75
2023-05-22T00:28:44.770Z,14.50
2023-05-22T00:31:11.374Z,11.55
2023-05-22T00:33:37.986Z,14.45
2023-05-22T00:36:05.369Z,12.73
2023-05-22T00:38:34.430Z,15.80
2023-05-22T00:41:02.224Z,14.38
2023-05-22T00:43:29.279Z,15.00
2023-05-22T00:45:56.360Z,14.55
2023-05-22T00:48:23.657Z,16.08
2023-05-22T00:50:51.384Z,15.73
2023-05-22T00:53:21.379Z,12.60
2023-05-22T00:55:48.235Z,14.77
2023-05-22T00:58:18.022Z,17.83
2023-05-22T01:00:46.606Z,14.07
2023-05-22T01:03:13.761Z,14.25
2023-05-22T01:05:41.413Z,16.27
2023-05-22T01:08:09.192Z,14.75
2023-05-22T01:10:38.639Z,13.75
2023-05-22T01:13:29.990Z,14.02
2023-05-22T01:16:08.961Z,14.43
2023-05-22T01:18:46.663Z,15.50
2023-05-22T01:21:16.216Z,17.63
2023-05-22T01:23:57.582Z,15.70
2023-05-22T01:26:49.023Z,14.43
2023-05-22T01:29:46.248Z,15.00
2023-05-22T01:32:16.977Z,14.65
2023-05-22T01:34:47.710Z,16.40
2023-05-22T01:37:15.034Z,17.10
2023-05-22T01:39:43.521Z,15.93
2023-05-22T01:42:10.314Z,15.25
2023-05-22T01:44:36.975Z,14.70
2023-05-22T01:47:05.779Z,16.60
2023-05-22T01:49:34.562Z,15.45
2023-05-22T01:52:21.096Z,18.10
2023-05-22T01:54:58.409Z,17.65
2023-05-22T01:57:32.914Z,16.95
2023-05-22T02:00:21.423Z,17.52
2023-05-22T02:02:51.413Z,15.57
2023-05-22T02:05:19.647Z,17.50
2023-05-22T02:07:48.232Z,14.95
2023-05-22T02:10:16.686Z,15.40
2023-05-22T02:12:43.944Z,16.45
2023-05-22T02:15:11.463Z,15.65
2023-05-22T02:17:41.647Z,15.85
2023-05-22T02:20:15.369Z,15.10
2023-05-22T02:22:44.391Z,16.45
2023-05-22T02:25:15.232Z,14.88
2023-05-22T02:27:46.103Z,16.77
2023-05-22T02:30:14.436Z,16.77
2023-05-22T02:32:41.590Z,16.85
2023-05-22T02:35:08.752Z,17.85
2023-05-22T02:37:36.032Z,17.63
2023-05-22T02:40:06.122Z,17.42
2023-05-22T02:42:32.901Z,16.30
2023-05-22T02:44:59.485Z,16.75
2023-05-22T02:47:26.168Z,17.60
2023-05-22T02:49:52.810Z,17.98
2023-05-22T02:52:19.554Z,15.88
2023-05-22T02:54:46.089Z,17.42
2023-05-22T02:57:12.725Z,17.45
2023-05-22T02:59:39.267Z,17.65
2023-05-22T03:02:06.288Z,18.65
2023-05-22T03:04:32.973Z,17.20
2023-05-22T03:07:01.425Z,18.92
2023-05-22T03:09:28.080Z,18.88
2023-05-22T03:11:54.633Z,17.58
2023-05-22T03:14:21.169Z,15.88
2023-05-22T03:16:47.792Z,15.40
2023-05-22T03:19:16.038Z,16.75
2023-05-22T03:21:45.972Z,16.15
2023-05-22T03:24:15.444Z,18.30
2023-05-22T03:26:42.159Z,18.00
2023-05-22T03:29:08.778Z,14.70
2023-05-22T03:31:36.154Z,14.38
2023-05-22T03:34:03.721Z,18.60
2023-05-22T03:36:34.043Z,16.10
2023-05-22T03:39:00.884Z,16.70
2023-05-22T03:41:27.558Z,17.17
2023-05-22T03:43:54.156Z,15.38
2023-05-22T03:46:20.991Z,15.00
2023-05-22T03:48:47.686Z,16.73
2023-05-22T03:51:14.240Z,17.58
2023-05-22T03:53:40.846Z,14.60
2023-05-22T03:56:07.600Z,16.02
2023-05-22T03:58:34.171Z,15.35
2023-05-22T04:01:01.340Z,15.85
2023-05-22T04:03:28.524Z,15.52
2023-05-22T04:05:56.834Z,15.40
2023-05-22T04:08:23.556Z,16.02
2023-05-22T04:10:50.220Z,15.52
2023-05-22T04:13:17.449Z,17.63
2023-05-22T04:15:46.158Z,16.55
2023-05-22T04:18:13.255Z,18.17
2023-05-22T04:20:40.552Z,18.77
2023-05-22T04:23:07.959Z,16.23
2023-05-22T04:25:34.715Z,14.68
2023-05-22T04:28:04.062Z,16.83
2023-05-22T04:30:34.253Z,15.32
2023-05-22T04:33:01.752Z,15.35
2023-05-22T04:35:29.692Z,15.50
2023-05-22T04:38:02.814Z,13.02
2023-05-22T04:40:30.449Z,14.50
2023-05-22T04:42:59.992Z,13.35
2023-05-22T04:45:28.847Z,15.32
2023-05-22T04:47:56.233Z,14.63
2023-05-22T04:50:24.018Z,14.77
2023-05-22T04:52:50.896Z,12.40
2023-05-22T04:55:19.132Z,15.75
2023-05-22T04:57:46.111Z,15.40
2023-05-22T05:00:14.492Z,13.10
2023-05-22T05:02:41.367Z,13.65
2023-05-22T05:05:08.495Z,11.60
2023-05-22T05:07:39.307Z,14.75
2023-05-22T05:10:07.157Z,16.27
2023-05-22T05:12:34.090Z,12.73
2023-05-22T05:15:00.737Z,16.27
2023-05-22T05:17:27.533Z,15.30
2023-05-22T05:19:54.197Z,16.00
2023-05-22T05:22:20.732Z,12.95
2023-05-22T05:24:47.358Z,14.45
2023-05-22T05:27:14.198Z,13.95
2023-05-22T05:29:41.302Z,12.30
2023-05-22T05:32:08.197Z,12.65
2023-05-22T05:34:35.424Z,15.27
2023-05-22T05:37:02.891Z,11.48
2023-05-22T05:39:29.702Z,12.73
2023-05-22T05:41:56.367Z,12.85
2023-05-22T05:44:22.982Z,15.98
2023-05-22T05:46:49.950Z,12.45
2023-05-22T05:49:16.564Z,20.02
2023-05-22T05:51:43.187Z,19.20
2023-05-22T05:54:09.736Z,11.30
2023-05-22T05:56:36.578Z,12.80
2023-05-22T05:59:04.109Z,12.05
2023-05-22T06:01:32.939Z,15.13
2023-05-22T06:04:03.206Z,13.93
2023-05-22T06:06:36.338Z,12.75
2023-05-22T06:09:05.639Z,13.18
2023-05-22T06:14:03.104Z,13.13
2023-05-22T06:16:29.956Z,11.13
2023-05-22T06:18:59.198Z,11.38
2023-05-22T06:21:26.112Z,15.30
2023-05-22T06:23:52.833Z,13.98
2023-05-22T06:26:19.450Z,13.18
2023-05-22T06:28:46.095Z,13.43
2023-05-22T06:31:12.732Z,13.80
2023-05-22T06:33:40.754Z,18.48
2023-05-22T06:36:08.892Z,10.60
2023-05-22T06:38:37.913Z,17.52
2023-05-22T06:43:31.196Z,34.60
2023-05-22T06:45:57.792Z,14.32
2023-05-22T06:48:24.443Z,9.32
2023-05-22T06:50:51.048Z,12.40
2023-05-22T06:53:17.591Z,10.90
2023-05-22T06:55:44.248Z,9.90
2023-05-22T06:58:10.793Z,10.30
2023-05-22T07:00:37.417Z,13.68
2023-05-22T07:03:06.284Z,8.77
2023-05-22T07:07:59.455Z,12.20
2023-05-22T07:10:27.756Z,10.35
2023-05-22T07:12:54.674Z,9.93
2023-05-22T07:15:21.406Z,8.90
2023-05-22T07:17:49.343Z,13.05
2023-05-22T07:20:16.539Z,9.05
2023-05-22T07:22:43.329Z,8.18
2023-05-22T07:25:10.154Z,9.00
2023-05-22T07:27:36.936Z,9.23
2023-05-22T07:30:03.942Z,7.53
2023-05-22T07:32:33.663Z,8.02
2023-05-22T07:35:00.238Z,8.13
2023-05-22T07:37:26.844Z,10.13
2023-05-22T07:39:53.625Z,10.13
2023-05-22T07:42:21.686Z,9.18
2023-05-22T07:44:48.248Z,7.07
2023-05-22T07:47:14.881Z,8.60
2023-05-22T07:49:41.576Z,12.82
2023-05-22T07:52:08.216Z,8.13
2023-05-22T07:54:34.788Z,7.07
2023-05-22T07:57:04.017Z,9.50
2023-05-22T07:59:30.666Z,9.20
2023-05-22T08:02:01.592Z,9.45
2023-05-22T08:04:30.101Z,8.27
2023-05-22T08:06:57.273Z,7.35
2023-05-22T08:09:23.977Z,6.47
2023-05-22T08:11:50.708Z,6.80
2023-05-22T08:14:17.286Z,8.32
2023-05-22T08:16:43.975Z,7.03
2023-05-22T08:19:11.121Z,8.80
2023-05-22T08:21:37.904Z,8.57
2023-05-22T08:24:04.607Z,8.77
2023-05-22T08:26:33.248Z,10.80
2023-05-22T08:29:00.525Z,9.80
2023-05-22T08:31:29.268Z,6.90
2023-05-22T08:36:33.992Z,6.68
2023-05-22T08:39:01.476Z,4.68
2023-05-22T08:41:29.304Z,5.97
2023-05-22T08:43:56.065Z,5.97
2023-05-22T08:46:26.478Z,5.70
2023-05-22T08:48:56.948Z,6.07
2023-05-22T08:51:28.735Z,6.07
2023-05-22T08:53:57.096Z,6.10
2023-05-22T08:56:25.139Z,8.77
2023-05-22T08:58:53.855Z,6.93
2023-05-22T09:01:20.700Z,6.82
2023-05-22T09:03:51.208Z,5.95
2023-05-22T09:06:18.647Z,7.20
2023-05-22T09:08:46.002Z,10.27
2023-05-22T09:11:13.218Z,6.30
2023-05-22T09:13:41.230Z,5.32
2023-05-22T09:16:13.111Z,7.18
2023-05-22T09:18:41.464Z,5.28
2023-05-22T09:21:25.803Z,7.43
2023-05-22T09:24:01.225Z,6.22
2023-05-22T09:26:33.665Z,5.57
2023-05-22T09:29:00.855Z,7.78
2023-05-22T09:31:31.041Z,7.72
2023-05-22T09:33:58.701Z,7.68
2023-05-22T09:36:35.075Z,5.65
2023-05-22T09:39:03.976Z,8.55
2023-05-22T09:41:35.220Z,11.63
2023-05-22T09:44:02.398Z,6.75
2023-05-22T09:46:29.714Z,8.63
2023-05-22T09:48:56.452Z,8.63
2023-05-22T09:51:26.617Z,9.90
2023-05-22T09:54:03.400Z,7.25
2023-05-22T09:56:39.007Z,12.10
2023-05-22T09:59:09.430Z,6.32
2023-05-22T10:01:38.719Z,8.15
2023-05-22T10:04:08.832Z,9.13
2023-05-22T10:06:37.135Z,7.63
2023-05-22T10:09:09.780Z,7.78
2023-05-22T10:11:37.966Z,10.48
2023-05-22T10:14:05.256Z,8.23
2023-05-22T10:16:34.151Z,8.45
2023-05-22T10:19:01.175Z,7.65
2023-05-22T10:21:29.901Z,8.48
2023-05-22T10:23:57.923Z,6.80
2023-05-22T10:26:25.893Z,7.55
2023-05-22T10:29:03.125Z,6.03
2023-05-22T10:31:46.054Z,8.05
2023-05-22T10:34:21.451Z,9.65
2023-05-22T10:37:17.004Z,5.65
2023-05-22T10:40:10.677Z,9.50
2023-05-22T10:42:38.459Z,7.13
2023-05-22T10:45:07.886Z,7.20
2023-05-22T10:47:34.921Z,8.15
2023-05-22T10:50:07.220Z,5.53
2023-05-22T10:52:34.744Z,6.50
2023-05-22T10:55:01.896Z,8.85
2023-05-22T10:57:34.419Z,7.65
2023-05-22T11:00:09.415Z,5.82
2023-05-22T11:02:44.032Z,8.32
2023-05-22T11:05:22.615Z,9.18
2023-05-22T11:07:49.302Z,7.38
2023-05-22T11:10:26.930Z,4.82
2023-05-22T11:13:11.174Z,4.63
2023-05-22T11:15:45.234Z,8.43
2023-05-22T11:18:12.877Z,7.90
2023-05-22T11:20:40.185Z,8.88
2023-05-22T11:23:08.231Z,6.38
2023-05-22T11:25:38.152Z,8.07
2023-05-22T11:28:06.372Z,5.93
2023-05-22T11:30:34.573Z,5.95
2023-05-22T11:33:02.061Z,5.32
2023-05-22T11:35:29.071Z,7.07
2023-05-22T11:37:56.389Z,6.82
2023-05-22T11:40:25.563Z,6.40
2023-05-22T11:42:56.416Z,8.82
2023-05-22T11:45:23.956Z,7.45
2023-05-22T11:47:50.846Z,8.55
2023-05-22T11:50:29.275Z,6.25
2023-05-22T11:53:01.714Z,5.55
2023-05-22T11:55:28.317Z,9.65
2023-05-22T11:57:56.573Z,7.60
2023-05-22T12:00:23.405Z,7.35
2023-05-22T12:02:50.253Z,5.90
2023-05-22T12:05:17.039Z,7.70
2023-05-22T12:07:43.991Z,9.30
2023-05-22T12:10:11.154Z,4.95
2023-05-22T12:12:38.479Z,8.70
2023-05-22T12:15:06.509Z,7.40
2023-05-22T12:17:37.383Z,6.50
2023-05-22T12:20:05.222Z,7.63
2023-05-22T12:22:31.900Z,8.20
2023-05-22T12:24:58.539Z,7.57
2023-05-22T12:27:32.671Z,8.65
2023-05-22T12:32:29.748Z,5.30
2023-05-22T12:34:58.130Z,5.25
2023-05-22T12:37:25.918Z,7.22
2023-05-22T12:40:00.937Z,6.63
2023-05-22T12:42:28.675Z,6.32
2023-05-22T12:44:56.626Z,7.10
2023-05-22T12:47:24.497Z,6.97
2023-05-22T12:49:51.390Z,6.25
2023-05-22T12:52:18.427Z,5.53
2023-05-22T12:54:45.344Z,8.05
2023-05-22T12:57:11.981Z,6.18
2023-05-22T12:59:38.722Z,10.57
2023-05-22T13:02:05.810Z,8.95
2023-05-22T13:04:32.673Z,6.50
2023-05-22T13:06:59.351Z,8.68
2023-05-22T13:09:26.159Z,8.00
2023-05-22T13:11:53.087Z,8.75
2023-05-22T13:14:19.789Z,5.15
2023-05-22T13:16:46.334Z,6.20
2023-05-22T13:19:12.986Z,7.30
2023-05-22T13:21:39.588Z,8.30
2023-05-22T13:24:06.241Z,8.02
2023-05-22T13:26:32.850Z,7.68
2023-05-22T13:28:59.491Z,7.90
2023-05-22T13:31:26.330Z,8.55
2023-05-22T13:33:53.102Z,6.55
2023-05-22T13:36:19.941Z,7.50
2023-05-22T13:38:46.688Z,6.35
2023-05-22T13:41:15.430Z,6.22
2023-05-22T13:43:41.978Z,7.88
2023-05-22T13:46:08.706Z,6.30
2023-05-22T13:48:35.391Z,7.07
2023-05-22T13:51:01.973Z,8.57
2023-05-22T13:53:28.574Z,6.13
2023-05-22T13:55:55.275Z,8.20
2023-05-22T13:58:21.852Z,6.00
2023-05-22T14:00:48.462Z,5.63
2023-05-22T14:03:17.583Z,8.15
2023-05-22T14:05:44.907Z,5.75
2023-05-22T14:08:11.643Z,9.25
2023-05-22T14:10:38.787Z,8.90
2023-05-22T14:13:05.566Z,10.95
2023-05-22T14:15:32.239Z,7.15
2023-05-22T14:17:58.914Z,6.72
2023-05-22T14:20:25.630Z,6.25
2023-05-22T14:22:57.780Z,7.13
2023-05-22T14:25:25.919Z,6.85
2023-05-22T14:27:52.581Z,6.75
2023-05-22T14:30:19.390Z,8.00
2023-05-22T14:32:46.807Z,8.65
2023-05-22T14:35:13.590Z,7.97
2023-05-22T14:37:40.188Z,5.15
2023-05-22T14:40:07.485Z,9.85
2023-05-22T14:42:34.064Z,7.78
2023-05-22T14:45:00.838Z,7.30
2023-05-22T14:47:27.404Z,8.13
2023-05-22T14:49:57.590Z,5.88
2023-05-22T14:52:29.602Z,7.97
2023-05-22T14:54:56.168Z,7.97
2023-05-22T14:57:22.777Z,6.57
2023-05-22T14:59:49.351Z,7.18
2023-05-22T15:02:16.064Z,9.38
2023-05-22T15:04:44.650Z,6.80
2023-05-22T15:09:37.994Z,6.10
2023-05-22T15:12:04.771Z,5.65
2023-05-22T15:14:31.338Z,6.85
2023-05-22T15:17:01.067Z,7.30
2023-05-22T15:19:27.708Z,6.85
2023-05-22T15:22:00.755Z,7.20
2023-05-22T15:24:32.435Z,5.93
2023-05-22T15:26:59.195Z,7.80
2023-05-22T15:29:25.816Z,7.53
2023-05-22T15:31:53.588Z,7.50
2023-05-22T15:34:20.227Z,8.32
2023-05-22T15:36:46.803Z,5.85
2023-05-22T15:39:13.350Z,7.57
2023-05-22T15:41:39.926Z,5.00
2023-05-22T15:44:10.086Z,8.80
2023-05-22T15:46:36.787Z,8.85
2023-05-22T15:49:05.801Z,9.20
2023-05-22T15:51:32.807Z,8.75
2023-05-22T15:53:59.446Z,6.55
2023-05-22T15:56:26.000Z,9.07
2023-05-22T15:58:52.544Z,6.32
2023-05-22T16:01:19.253Z,6.43
2023-05-22T16:03:46.118Z,6.07
2023-05-22T16:06:12.738Z,8.93
2023-05-22T16:08:39.295Z,7.13
2023-05-22T16:11:05.904Z,6.80
2023-05-22T16:13:32.983Z,9.90
2023-05-22T16:15:59.640Z,9.25
2023-05-22T16:18:26.224Z,10.68
2023-05-22T16:20:52.792Z,17.65
2023-05-22T16:23:19.400Z,8.20
2023-05-22T16:25:45.973Z,8.88
2023-05-22T16:28:13.287Z,5.53
2023-05-22T16:30:40.155Z,6.75
2023-05-22T16:33:07.338Z,9.48
2023-05-22T16:35:34.007Z,7.05
2023-05-22T16:38:00.673Z,7.85
2023-05-22T16:40:27.320Z,7.30
2023-05-22T16:42:53.913Z,8.27
2023-05-22T16:45:22.062Z,8.32
2023-05-22T16:47:48.708Z,6.45
2023-05-22T16:50:15.393Z,7.43
2023-05-22T16:52:42.012Z,6.30
2023-05-22T16:55:09.024Z,6.40
2023-05-22T16:57:35.539Z,7.75
2023-05-22T17:00:02.315Z,10.00
2023-05-22T17:02:29.197Z,8.93
2023-05-22T17:04:55.979Z,8.68
2023-05-22T17:07:22.528Z,5.85
2023-05-22T17:09:49.100Z,8.48
2023-05-22T17:12:15.720Z,6.97
2023-05-22T17:14:42.427Z,5.50
2023-05-22T17:17:09.439Z,6.38
2023-05-22T17:19:39.963Z,4.63
2023-05-22T17:22:06.559Z,5.78
2023-05-22T17:24:34.315Z,8.10
2023-05-22T17:27:07.900Z,5.28
2023-05-22T17:29:34.454Z,10.88
2023-05-22T17:32:01.227Z,10.15
2023-05-22T17:34:27.822Z,5.88
2023-05-22T17:36:55.524Z,9.02
2023-05-22T17:39:27.507Z,10.95
2023-05-22T17:41:54.262Z,7.00
2023-05-22T17:44:20.964Z,7.13
2023-05-22T17:46:49.468Z,10.30
2023-05-22T17:49:16.166Z,13.48
2023-05-22T17:51:42.748Z,14.20
2023-05-22T17:54:09.427Z,15.45
2023-05-22T17:56:37.036Z,10.23
2023-05-22T17:59:03.642Z,12.43
2023-05-22T18:01:31.785Z,9.85
2023-05-22T18:04:00.028Z,8.40
2023-05-22T18:06:26.862Z,11.38
2023-05-22T18:08:53.511Z,6.88
2023-05-22T18:11:20.090Z,15.38
2023-05-22T18:13:46.898Z,5.70
2023-05-22T18:16:14.098Z,7.88
2023-05-22T18:18:40.644Z,8.20
2023-05-22T18:21:07.470Z,8.23
2023-05-22T18:23:34.081Z,6.00
2023-05-22T18:26:01.104Z,5.32
2023-05-22T18:28:27.807Z,7.88
2023-05-22T18:30:54.437Z,6.05
2023-05-22T18:33:22.802Z,5.97
2023-05-22T18:35:49.428Z,7.85
2023-05-22T18:38:16.388Z,7.43
2023-05-22T18:40:43.210Z,6.10
2023-05-22T18:43:09.768Z,7.88
2023-05-22T18:45:36.310Z,4.88
2023-05-22T18:48:02.993Z,10.65
2023-05-22T18:50:29.734Z,7.30
2023-05-22T18:52:56.543Z,6.00
2023-05-22T18:55:23.117Z,8.52
2023-05-22T18:57:49.695Z,7.50
2023-05-22T19:00:16.527Z,9.75
2023-05-22T19:02:43.207Z,6.55
2023-05-22T19:05:10.332Z,7.63
2023-05-22T19:07:36.970Z,10.07
2023-05-22T19:10:06.256Z,6.68
2023-05-22T19:12:34.545Z,8.73
2023-05-22T19:15:01.476Z,7.90
2023-05-22T19:17:28.191Z,5.90
2023-05-22T19:19:54.828Z,6.32
2023-05-22T19:22:21.453Z,5.45
2023-05-22T19:24:47.991Z,6.53
2023-05-22T19:27:14.842Z,6.47
2023-05-22T19:29:41.532Z,6.13
2023-05-22T19:32:08.131Z,9.45
2023-05-22T19:34:34.865Z,7.60
2023-05-22T19:37:01.647Z,7.20
2023-05-22T19:39:28.195Z,8.18
2023-05-22T19:41:54.837Z,6.85
2023-05-22T19:44:21.563Z,8.07
2023-05-22T19:46:48.294Z,9.98
2023-05-22T19:49:15.111Z,6.20
2023-05-22T19:51:42.877Z,6.45
2023-05-22T19:54:09.518Z,6.90
2023-05-22T19:56:36.401Z,10.02
2023-05-22T19:59:03.094Z,7.40
2023-05-22T20:01:29.843Z,9.60
2023-05-22T20:03:56.586Z,6.78
2023-05-22T20:06:23.213Z,8.73
2023-05-22T20:08:49.743Z,5.22
2023-05-22T20:11:16.322Z,6.22
2023-05-22T20:13:42.921Z,6.63
2023-05-22T20:16:12.610Z,6.97
2023-05-22T20:18:41.190Z,9.73
2023-05-22T20:21:08.107Z,7.10
2023-05-22T20:23:34.710Z,6.80
2023-05-22T20:26:01.416Z,6.70
2023-05-22T20:28:28.086Z,6.10
2023-05-22T20:30:54.696Z,8.15
2023-05-22T20:33:21.359Z,9.07
2023-05-22T20:35:48.860Z,8.75
2023-05-22T20:38:18.943Z,7.13
2023-05-22T20:40:47.590Z,5.35
2023-05-22T20:43:14.551Z,6.85
2023-05-22T20:45:45.772Z,7.20
2023-05-22T20:48:13.702Z,6.70
2023-05-22T20:50:42.194Z,5.78
2023-05-22T20:53:08.960Z,6.90
2023-05-22T20:55:35.734Z,5.13
2023-05-22T20:58:02.447Z,9.45
2023-05-22T21:00:29.977Z,9.88
2023-05-22T21:02:58.407Z,6.60
2023-05-22T21:05:26.219Z,6.30
2023-05-22T21:07:52.967Z,9.13
2023-05-22T21:10:19.571Z,6.68
2023-05-22T21:12:46.174Z,7.30
2023-05-22T21:15:12.812Z,8.07
2023-05-22T21:17:39.592Z,8.45
2023-05-22T21:20:06.848Z,7.55
2023-05-22T21:22:33.433Z,7.57
2023-05-22T21:24:59.981Z,7.55
2023-05-22T21:27:26.503Z,7.38
2023-05-22T21:29:53.084Z,8.23
2023-05-22T21:32:19.674Z,6.47
2023-05-22T21:34:46.696Z,8.00
2023-05-22T21:37:13.332Z,8.45
2023-05-22T21:39:39.885Z,6.80
2023-05-22T21:42:06.837Z,6.93
2023-05-22T21:44:33.407Z,5.93
2023-05-22T21:47:00.037Z,6.65
2023-05-22T21:49:26.723Z,6.72
2023-05-22T21:51:53.375Z,6.30
2023-05-22T21:54:19.992Z,6.72
2023-05-22T21:56:46.577Z,7.45
2023-05-22T21:59:13.158Z,9.85
2023-05-22T22:01:39.854Z,8.38
2023-05-22T22:04:06.771Z,6.50
2023-05-22T22:06:33.672Z,6.47
2023-05-22T22:09:00.340Z,11.63
2023-05-22T22:11:27.558Z,7.82
2023-05-22T22:13:54.201Z,6.95
2023-05-22T22:16:22.200Z,7.85
2023-05-22T22:18:50.137Z,9.70
2023-05-22T22:21:17.417Z,7.65
2023-05-22T22:23:44.006Z,8.40
2023-05-22T22:26:12.122Z,5.90
2023-05-22T22:28:38.841Z,8.45
2023-05-22T22:31:05.408Z,8.65
2023-05-22T22:33:32.795Z,9.95
2023-05-22T22:35:59.617Z,8.93
2023-05-22T22:38:26.846Z,9.27
2023-05-22T22:40:53.453Z,8.50
2023-05-22T22:43:20.110Z,7.35
2023-05-22T22:45:46.812Z,8.60
2023-05-22T22:48:13.398Z,6.68
2023-05-22T22:50:40.223Z,8.02
2023-05-22T22:53:06.989Z,8.77
2023-05-22T22:55:33.752Z,6.80
2023-05-22T22:58:01.910Z,9.13
2023-05-22T23:00:28.476Z,7.40
2023-05-22T23:02:55.077Z,7.85
2023-05-22T23:05:21.863Z,8.93
2023-05-22T23:07:48.841Z,8.75
2023-05-22T23:10:15.749Z,9.73
2023-05-22T23:12:42.363Z,8.85
2023-05-22T23:15:10.972Z,9.23
2023-05-22T23:17:38.145Z,7.20
2023-05-22T23:20:05.874Z,10.07
2023-05-22T23:22:32.428Z,9.82
2023-05-22T23:24:58.966Z,8.77
2023-05-22T23:27:26.044Z,7.97
2023-05-22T23:29:52.636Z,11.98
2023-05-22T23:32:19.240Z,9.68
2023-05-22T23:34:45.866Z,9.18
2023-05-22T23:37:12.486Z,8.15
2023-05-22T23:39:39.013Z,8.70
2023-05-22T23:42:05.851Z,8.15
2023-05-22T23:44:32.392Z,7.45
2023-05-22T23:46:59.170Z,10.05
2023-05-22T23:49:26.415Z,8.82
2023-05-22T23:51:53.060Z,11.98
2023-05-22T23:54:19.618Z,7.95
2023-05-22T23:56:46.269Z,10.77
2023-05-22T23:59:12.822Z,11.93
